Terminal Aerodrome Forecast
Issued by NWS

Home | Current Version | Previous Version | Text Only | Print | Product List | Glossary On
Versions: 1 2 3 4 5 6 7 8 9 10 11 12 13 14 15 16 17 18 19 20 21 22 23 24 25 26 27 28 29 30 31 32 33 34 35 36 37 38 39 40 41 42 43 44 45 46
000
FTUS46 KLOX 151747 CCA
TAFLGB
TAF COR
KLGB 151747Z 1518/1618 00000KT 6SM HZ SCT006
     FM151900 20008KT P6SM BKN200
     FM152300 30008KT P6SM BKN200
     FM160600 VRB03KT P6SM BKN008
     FM161500 14005KT P6SM OVC010=

USA.gov is the U.S. government's official web portal to all federal, state and local government web resources and services.